KJEF/JEF METAR and TAF weather

Enter ICAO airport designator
Station Type Date Time Source
KJEF METAR 2022/09/29 20:53 UTC NOAA

KJEF 292053Z 14005KT 10SM CLR 22/03 A3030 RMK AO2 SLP249 T02170033 56032


Station Type Date Time Source
KJEF Decoded METAR 2022/09/29 20:53 UTC NOAA

JEFFERSON CITY MEMORIAL AIRPORT , MO, United States (KJEF) 38-36N 92-09W 168M
Sep 29, 2022 - 04:53 PM EDT / 2022.09.29 2053 UTC
Wind: from the SE (140 degrees) at 6 MPH (5 KT):0
Visibility: 10 mile(s):0
Sky conditions: clear
Temperature: 71.1 F (21.7 C)
Dew Point: 37.9 F (3.3 C)
Relative Humidity: 29%
Pressure (altimeter): 30.3 in. Hg (1026 hPa)
Pressure tendency: 0.09 inches (3.2 hPa) lower than three hours ago
ob: KJEF 292053Z 14005KT 10SM CLR 22/03 A3030 RMK AO2 SLP249 T02170033 56032
cycle: 21

Station Type Date Time Source
KJEF TAF 2022/09/29 18:22 UTC NOAA

TAF KJEF 291720Z 2918/3018 12009KT P6SM SKC
FM300100 11003KT P6SM SKC

Example: see airport list